sensor_id;sensor_type;location;lat;lon;timestamp;temperature;humidity
37412;DHT22;23278;52.110;6.050;2022-11-15T00:02:10;9.20;99.90
37412;DHT22;23278;52.110;6.050;2022-11-15T00:04:54;9.20;99.90
37412;DHT22;23278;52.110;6.050;2022-11-15T00:07:39;9.20;99.90
37412;DHT22;23278;52.110;6.050;2022-11-15T00:10:23;9.20;99.90
37412;DHT22;23278;52.110;6.050;2022-11-15T00:13:12;9.20;99.90
37412;DHT22;23278;52.110;6.050;2022-11-15T00:15:58;9.20;99.90
37412;DHT22;23278;52.110;6.050;2022-11-15T00:18:43;9.20;99.90
37412;DHT22;23278;52.110;6.050;2022-11-15T00:21:27;9.20;99.90
37412;DHT22;23278;52.110;6.050;2022-11-15T00:24:11;9.20;99.90
37412;DHT22;23278;52.110;6.050;2022-11-15T00:26:56;9.10;99.90
37412;DHT22;23278;52.110;6.050;2022-11-15T00:29:40;9.20;99.90
37412;DHT22;23278;52.110;6.050;2022-11-15T00:32:32;9.20;99.90
37412;DHT22;23278;52.110;6.050;2022-11-15T00:35:17;9.20;99.90
37412;DHT22;23278;52.110;6.050;2022-11-15T00:38:02;9.30;99.90
37412;DHT22;23278;52.110;6.050;2022-11-15T00:40:46;9.20;99.90
37412;DHT22;23278;52.110;6.050;2022-11-15T00:43:31;9.20;99.90
37412;DHT22;23278;52.110;6.050;2022-11-15T00:46:15;9.20;99.90
37412;DHT22;23278;52.110;6.050;2022-11-15T00:49:00;9.30;99.90
37412;DHT22;23278;52.110;6.050;2022-11-15T00:51:44;9.30;99.90
37412;DHT22;23278;52.110;6.050;2022-11-15T00:54:29;9.30;99.90
37412;DHT22;23278;52.110;6.050;2022-11-15T00:57:13;9.30;99.90
37412;DHT22;23278;52.110;6.050;2022-11-15T00:59:57;9.30;99.90
37412;DHT22;23278;52.110;6.050;2022-11-15T01:02:42;9.30;99.90
37412;DHT22;23278;52.110;6.050;2022-11-15T01:05:27;9.30;99.90
37412;DHT22;23278;52.110;6.050;2022-11-15T01:08:17;9.30;99.90
37412;DHT22;23278;52.110;6.050;2022-11-15T01:11:07;9.30;99.90
37412;DHT22;23278;52.110;6.050;2022-11-15T01:13:51;9.30;99.90
37412;DHT22;23278;52.110;6.050;2022-11-15T01:16:36;9.30;99.90
37412;DHT22;23278;52.110;6.050;2022-11-15T01:19:20;9.30;99.90
37412;DHT22;23278;52.110;6.050;2022-11-15T01:22:04;9.30;99.90
37412;DHT22;23278;52.110;6.050;2022-11-15T01:24:52;9.30;99.90
37412;DHT22;23278;52.110;6.050;2022-11-15T01:27:36;9.30;99.90
37412;DHT22;23278;52.110;6.050;2022-11-15T01:30:21;9.30;99.90
37412;DHT22;23278;52.110;6.050;2022-11-15T01:33:05;9.40;99.90
37412;DHT22;23278;52.110;6.050;2022-11-15T01:35:50;9.40;99.90
37412;DHT22;23278;52.110;6.050;2022-11-15T01:38:34;9.40;99.90
37412;DHT22;23278;52.110;6.050;2022-11-15T01:41:21;9.40;99.90
37412;DHT22;23278;52.110;6.050;2022-11-15T01:44:36;9.50;99.90
37412;DHT22;23278;52.110;6.050;2022-11-15T01:50:12;9.60;99.90
37412;DHT22;23278;52.110;6.050;2022-11-15T01:52:58;9.60;99.90
37412;DHT22;23278;52.110;6.050;2022-11-15T01:55:43;9.60;99.90
37412;DHT22;23278;52.110;6.050;2022-11-15T01:58:27;9.60;99.90
37412;DHT22;23278;52.110;6.050;2022-11-15T02:01:13;9.70;99.90
37412;DHT22;23278;52.110;6.050;2022-11-15T02:04:11;9.80;99.90
37412;DHT22;23278;52.110;6.050;2022-11-15T02:06:57;9.80;99.90
37412;DHT22;23278;52.110;6.050;2022-11-15T02:09:43;9.80;99.90
37412;DHT22;23278;52.110;6.050;2022-11-15T02:12:28;9.80;99.90
37412;DHT22;23278;52.110;6.050;2022-11-15T02:15:12;9.90;99.90
37412;DHT22;23278;52.110;6.050;2022-11-15T02:18:11;9.90;99.90
37412;DHT22;23278;52.110;6.050;2022-11-15T02:30:48;10.00;99.90
37412;DHT22;23278;52.110;6.050;2022-11-15T02:33:54;10.10;99.90
37412;DHT22;23278;52.110;6.050;2022-11-15T02:40:12;10.10;99.90
37412;DHT22;23278;52.110;6.050;2022-11-15T02:43:12;10.10;99.90
37412;DHT22;23278;52.110;6.050;2022-11-15T02:49:35;10.20;99.90
37412;DHT22;23278;52.110;6.050;2022-11-15T02:52:23;10.20;99.90
37412;DHT22;23278;52.110;6.050;2022-11-15T02:55:36;10.20;99.90
37412;DHT22;23278;52.110;6.050;2022-11-15T03:17:02;10.50;99.90
37412;DHT22;23278;52.110;6.050;2022-11-15T03:20:05;10.50;99.90
37412;DHT22;23278;52.110;6.050;2022-11-15T03:22:50;10.50;99.90
37412;DHT22;23278;52.110;6.050;2022-11-15T03:25:40;10.50;99.90
37412;DHT22;23278;52.110;6.050;2022-11-15T03:28:42;10.50;99.90
37412;DHT22;23278;52.110;6.050;2022-11-15T03:31:33;10.50;99.90
37412;DHT22;23278;52.110;6.050;2022-11-15T03:34:53;10.60;99.90
37412;DHT22;23278;52.110;6.050;2022-11-15T03:38:00;10.60;99.90
37412;DHT22;23278;52.110;6.050;2022-11-15T03:40:59;10.70;99.90
37412;DHT22;23278;52.110;6.050;2022-11-15T03:44:08;10.70;99.90
37412;DHT22;23278;52.110;6.050;2022-11-15T03:50:01;10.80;99.90
37412;DHT22;23278;52.110;6.050;2022-11-15T03:52:48;10.80;99.90
37412;DHT22;23278;52.110;6.050;2022-11-15T03:55:33;10.80;99.90
37412;DHT22;23278;52.110;6.050;2022-11-15T03:58:18;10.80;99.90
37412;DHT22;23278;52.110;6.050;2022-11-15T04:01:03;10.80;99.90
37412;DHT22;23278;52.110;6.050;2022-11-15T04:03:47;10.90;99.90
37412;DHT22;23278;52.110;6.050;2022-11-15T04:06:31;10.90;99.90
37412;DHT22;23278;52.110;6.050;2022-11-15T04:09:16;10.90;99.90
37412;DHT22;23278;52.110;6.050;2022-11-15T04:12:00;11.00;99.90
37412;DHT22;23278;52.110;6.050;2022-11-15T04:14:44;11.00;99.90
37412;DHT22;23278;52.110;6.050;2022-11-15T04:17:51;11.10;99.90
37412;DHT22;23278;52.110;6.050;2022-11-15T04:20:36;11.10;99.90
37412;DHT22;23278;52.110;6.050;2022-11-15T04:23:39;11.10;99.90
37412;DHT22;23278;52.110;6.050;2022-11-15T04:26:49;11.20;99.90
37412;DHT22;23278;52.110;6.050;2022-11-15T04:29:34;11.20;99.90
37412;DHT22;23278;52.110;6.050;2022-11-15T04:32:18;11.30;99.90
37412;DHT22;23278;52.110;6.050;2022-11-15T04:35:03;11.30;99.90
37412;DHT22;23278;52.110;6.050;2022-11-15T04:37:47;11.30;99.90
37412;DHT22;23278;52.110;6.050;2022-11-15T04:40:32;11.40;99.90
37412;DHT22;23278;52.110;6.050;2022-11-15T04:43:16;11.40;99.90
37412;DHT22;23278;52.110;6.050;2022-11-15T04:46:00;11.40;99.90
37412;DHT22;23278;52.110;6.050;2022-11-15T04:48:45;11.40;99.90
37412;DHT22;23278;52.110;6.050;2022-11-15T04:51:29;11.50;99.90
37412;DHT22;23278;52.110;6.050;2022-11-15T04:54:14;11.40;99.90
37412;DHT22;23278;52.110;6.050;2022-11-15T04:56:58;11.40;99.90
37412;DHT22;23278;52.110;6.050;2022-11-15T04:59:42;11.40;99.90
37412;DHT22;23278;52.110;6.050;2022-11-15T05:02:27;11.40;99.90
37412;DHT22;23278;52.110;6.050;2022-11-15T05:05:31;11.40;99.90
37412;DHT22;23278;52.110;6.050;2022-11-15T05:08:16;11.40;99.90
37412;DHT22;23278;52.110;6.050;2022-11-15T05:11:00;11.40;99.90
37412;DHT22;23278;52.110;6.050;2022-11-15T05:13:44;11.40;99.90
37412;DHT22;23278;52.110;6.050;2022-11-15T05:16:29;11.40;99.90
37412;DHT22;23278;52.110;6.050;2022-11-15T05:19:13;11.40;99.90
37412;DHT22;23278;52.110;6.050;2022-11-15T05:21:58;11.40;99.90
37412;DHT22;23278;52.110;6.050;2022-11-15T05:24:42;11.40;99.90
37412;DHT22;23278;52.110;6.050;2022-11-15T05:27:27;11.40;99.90
37412;DHT22;23278;52.110;6.050;2022-11-15T05:30:12;11.40;99.90
37412;DHT22;23278;52.110;6.050;2022-11-15T05:32:56;11.50;99.90
37412;DHT22;23278;52.110;6.050;2022-11-15T05:35:43;11.50;99.90
37412;DHT22;23278;52.110;6.050;2022-11-15T05:38:29;11.60;99.90
37412;DHT22;23278;52.110;6.050;2022-11-15T05:41:15;11.60;99.90
37412;DHT22;23278;52.110;6.050;2022-11-15T05:44:02;11.60;99.90
37412;DHT22;23278;52.110;6.050;2022-11-15T05:46:49;11.60;99.90
37412;DHT22;23278;52.110;6.050;2022-11-15T05:49:36;11.60;99.90
37412;DHT22;23278;52.110;6.050;2022-11-15T05:52:25;11.60;99.90
37412;DHT22;23278;52.110;6.050;2022-11-15T05:55:12;11.60;99.90
37412;DHT22;23278;52.110;6.050;2022-11-15T05:57:57;11.70;99.90
37412;DHT22;23278;52.110;6.050;2022-11-15T06:00:42;11.70;99.90
37412;DHT22;23278;52.110;6.050;2022-11-15T06:03:27;11.70;99.90
37412;DHT22;23278;52.110;6.050;2022-11-15T06:06:11;11.70;99.90
37412;DHT22;23278;52.110;6.050;2022-11-15T06:08:56;11.70;99.90
37412;DHT22;23278;52.110;6.050;2022-11-15T06:11:40;11.80;99.90
37412;DHT22;23278;52.110;6.050;2022-11-15T06:14:25;11.70;99.90
37412;DHT22;23278;52.110;6.050;2022-11-15T06:17:09;11.80;99.90
37412;DHT22;23278;52.110;6.050;2022-11-15T06:19:54;11.80;99.90
37412;DHT22;23278;52.110;6.050;2022-11-15T06:22:38;11.80;99.90
37412;DHT22;23278;52.110;6.050;2022-11-15T06:25:22;11.80;99.90
37412;DHT22;23278;52.110;6.050;2022-11-15T06:28:07;11.80;99.90
37412;DHT22;23278;52.110;6.050;2022-11-15T06:30:52;11.80;99.90
37412;DHT22;23278;52.110;6.050;2022-11-15T06:33:37;11.80;99.90
37412;DHT22;23278;52.110;6.050;2022-11-15T06:36:22;11.80;99.90
37412;DHT22;23278;52.110;6.050;2022-11-15T06:39:07;11.80;99.90
37412;DHT22;23278;52.110;6.050;2022-11-15T06:41:51;11.80;99.90
37412;DHT22;23278;52.110;6.050;2022-11-15T06:44:35;11.80;99.90
37412;DHT22;23278;52.110;6.050;2022-11-15T06:47:19;11.80;99.90
37412;DHT22;23278;52.110;6.050;2022-11-15T06:50:04;11.80;99.90
37412;DHT22;23278;52.110;6.050;2022-11-15T06:52:48;11.80;99.90
37412;DHT22;23278;52.110;6.050;2022-11-15T06:55:33;11.80;99.90
37412;DHT22;23278;52.110;6.050;2022-11-15T06:58:17;11.90;99.90
37412;DHT22;23278;52.110;6.050;2022-11-15T07:01:10;11.90;99.90
37412;DHT22;23278;52.110;6.050;2022-11-15T07:03:54;11.90;99.90
37412;DHT22;23278;52.110;6.050;2022-11-15T07:06:39;12.00;99.90
37412;DHT22;23278;52.110;6.050;2022-11-15T07:09:23;12.00;99.90
37412;DHT22;23278;52.110;6.050;2022-11-15T07:12:07;12.00;99.90
37412;DHT22;23278;52.110;6.050;2022-11-15T07:14:51;12.00;99.90
37412;DHT22;23278;52.110;6.050;2022-11-15T07:17:35;12.00;99.90
37412;DHT22;23278;52.110;6.050;2022-11-15T07:20:20;12.00;99.90
37412;DHT22;23278;52.110;6.050;2022-11-15T07:23:05;12.00;99.90
37412;DHT22;23278;52.110;6.050;2022-11-15T07:25:49;12.00;99.90
37412;DHT22;23278;52.110;6.050;2022-11-15T07:28:34;12.10;99.90
37412;DHT22;23278;52.110;6.050;2022-11-15T07:31:19;12.10;99.90
37412;DHT22;23278;52.110;6.050;2022-11-15T07:34:03;12.10;99.90
37412;DHT22;23278;52.110;6.050;2022-11-15T07:36:47;12.20;99.90
37412;DHT22;23278;52.110;6.050;2022-11-15T07:39:32;12.20;99.90
37412;DHT22;23278;52.110;6.050;2022-11-15T07:42:16;12.20;99.90
37412;DHT22;23278;52.110;6.050;2022-11-15T07:45:21;12.20;99.90
37412;DHT22;23278;52.110;6.050;2022-11-15T07:48:06;12.20;99.90
37412;DHT22;23278;52.110;6.050;2022-11-15T07:50:51;12.30;99.90
37412;DHT22;23278;52.110;6.050;2022-11-15T07:53:35;12.30;99.90
37412;DHT22;23278;52.110;6.050;2022-11-15T07:56:20;12.30;99.90
37412;DHT22;23278;52.110;6.050;2022-11-15T07:59:05;12.30;99.90
37412;DHT22;23278;52.110;6.050;2022-11-15T08:01:49;12.30;99.90
37412;DHT22;23278;52.110;6.050;2022-11-15T08:04:33;12.30;99.90
37412;DHT22;23278;52.110;6.050;2022-11-15T08:07:18;12.30;99.90
37412;DHT22;23278;52.110;6.050;2022-11-15T08:10:02;12.40;99.90
37412;DHT22;23278;52.110;6.050;2022-11-15T08:12:47;12.40;99.90
37412;DHT22;23278;52.110;6.050;2022-11-15T08:15:33;12.30;99.90
37412;DHT22;23278;52.110;6.050;2022-11-15T08:18:18;12.40;99.90
37412;DHT22;23278;52.110;6.050;2022-11-15T08:21:03;12.40;99.90
37412;DHT22;23278;52.110;6.050;2022-11-15T08:23:48;12.40;99.90
37412;DHT22;23278;52.110;6.050;2022-11-15T08:26:32;12.40;99.90
37412;DHT22;23278;52.110;6.050;2022-11-15T08:29:17;12.40;99.90
37412;DHT22;23278;52.110;6.050;2022-11-15T08:32:01;12.40;99.90
37412;DHT22;23278;52.110;6.050;2022-11-15T08:34:45;12.50;99.90
37412;DHT22;23278;52.110;6.050;2022-11-15T08:37:30;12.50;99.90
37412;DHT22;23278;52.110;6.050;2022-11-15T08:40:15;12.60;99.90
37412;DHT22;23278;52.110;6.050;2022-11-15T08:42:59;12.70;99.90
37412;DHT22;23278;52.110;6.050;2022-11-15T08:45:46;12.80;99.90
37412;DHT22;23278;52.110;6.050;2022-11-15T08:48:30;12.90;99.90
37412;DHT22;23278;52.110;6.050;2022-11-15T08:51:15;13.10;99.90
37412;DHT22;23278;52.110;6.050;2022-11-15T08:54:00;13.20;99.90
37412;DHT22;23278;52.110;6.050;2022-11-15T08:56:44;13.40;99.90
37412;DHT22;23278;52.110;6.050;2022-11-15T08:59:28;13.30;99.90
37412;DHT22;23278;52.110;6.050;2022-11-15T09:02:13;13.30;99.90
37412;DHT22;23278;52.110;6.050;2022-11-15T09:04:58;13.30;99.90
37412;DHT22;23278;52.110;6.050;2022-11-15T09:07:43;13.30;99.90
37412;DHT22;23278;52.110;6.050;2022-11-15T09:10:27;13.30;99.90
37412;DHT22;23278;52.110;6.050;2022-11-15T09:13:12;13.30;99.90
37412;DHT22;23278;52.110;6.050;2022-11-15T09:15:59;13.30;99.90
37412;DHT22;23278;52.110;6.050;2022-11-15T09:18:44;13.30;99.90
37412;DHT22;23278;52.110;6.050;2022-11-15T09:21:30;13.40;99.90
37412;DHT22;23278;52.110;6.050;2022-11-15T09:24:15;13.50;99.90
37412;DHT22;23278;52.110;6.050;2022-11-15T09:26:59;13.60;99.90
37412;DHT22;23278;52.110;6.050;2022-11-15T09:29:44;13.60;99.90
37412;DHT22;23278;52.110;6.050;2022-11-15T09:32:29;13.80;99.90
37412;DHT22;23278;52.110;6.050;2022-11-15T09:35:14;13.90;99.90
37412;DHT22;23278;52.110;6.050;2022-11-15T09:37:59;13.90;99.90
37412;DHT22;23278;52.110;6.050;2022-11-15T09:40:43;13.80;99.90
37412;DHT22;23278;52.110;6.050;2022-11-15T09:49:29;13.90;99.90
37412;DHT22;23278;52.110;6.050;2022-11-15T09:52:12;13.90;99.90
37412;DHT22;23278;52.110;6.050;2022-11-15T09:54:40;13.90;99.90
37412;DHT22;23278;52.110;6.050;2022-11-15T10:05:25;15.20;99.90
37412;DHT22;23278;52.110;6.050;2022-11-15T10:11:16;15.10;99.90
37412;DHT22;23278;52.110;6.050;2022-11-15T10:13:45;14.90;99.90
37412;DHT22;23278;52.110;6.050;2022-11-15T10:16:41;14.80;99.90
37412;DHT22;23278;52.110;6.050;2022-11-15T10:19:35;14.80;99.90
37412;DHT22;23278;52.110;6.050;2022-11-15T10:22:38;14.90;99.90
37412;DHT22;23278;52.110;6.050;2022-11-15T10:25:26;14.90;99.90
37412;DHT22;23278;52.110;6.050;2022-11-15T10:28:10;14.90;99.90
37412;DHT22;23278;52.110;6.050;2022-11-15T10:30:39;14.80;99.90
37412;DHT22;23278;52.110;6.050;2022-11-15T10:33:29;14.70;99.90
37412;DHT22;23278;52.110;6.050;2022-11-15T10:36:23;14.70;99.90
37412;DHT22;23278;52.110;6.050;2022-11-15T10:38:54;14.70;99.90
37412;DHT22;23278;52.110;6.050;2022-11-15T10:41:21;14.60;99.90
37412;DHT22;23278;52.110;6.050;2022-11-15T10:46:48;14.90;99.90
37412;DHT22;23278;52.110;6.050;2022-11-15T10:54:39;15.10;99.80
37412;DHT22;23278;52.110;6.050;2022-11-15T10:59:45;14.90;99.50
37412;DHT22;23278;52.110;6.050;2022-11-15T11:02:37;14.80;99.60
37412;DHT22;23278;52.110;6.050;2022-11-15T11:11:01;15.40;99.60
37412;DHT22;23278;52.110;6.050;2022-11-15T11:18:47;17.90;97.20
37412;DHT22;23278;52.110;6.050;2022-11-15T11:21:22;18.60;94.30
37412;DHT22;23278;52.110;6.050;2022-11-15T11:23:58;18.40;94.10
37412;DHT22;23278;52.110;6.050;2022-11-15T11:26:42;17.90;93.70
37412;DHT22;23278;52.110;6.050;2022-11-15T11:29:18;17.50;93.20
37412;DHT22;23278;52.110;6.050;2022-11-15T11:32:03;17.10;93.50
37412;DHT22;23278;52.110;6.050;2022-11-15T11:34:45;17.10;94.00
37412;DHT22;23278;52.110;6.050;2022-11-15T11:37:21;17.40;93.40
37412;DHT22;23278;52.110;6.050;2022-11-15T11:42:33;18.00;91.50
37412;DHT22;23278;52.110;6.050;2022-11-15T11:45:19;18.10;91.00
37412;DHT22;23278;52.110;6.050;2022-11-15T11:48:07;18.20;91.00
37412;DHT22;23278;52.110;6.050;2022-11-15T11:50:37;18.50;90.20
37412;DHT22;23278;52.110;6.050;2022-11-15T11:53:05;18.90;86.60
37412;DHT22;23278;52.110;6.050;2022-11-15T11:58:14;20.20;84.10
37412;DHT22;23278;52.110;6.050;2022-11-15T12:00:47;21.20;78.40
37412;DHT22;23278;52.110;6.050;2022-11-15T12:03:41;21.80;72.70
37412;DHT22;23278;52.110;6.050;2022-11-15T12:06:41;22.20;71.30
37412;DHT22;23278;52.110;6.050;2022-11-15T12:09:16;22.90;70.30
37412;DHT22;23278;52.110;6.050;2022-11-15T12:12:04;23.20;64.20
37412;DHT22;23278;52.110;6.050;2022-11-15T12:14:40;23.00;61.40
37412;DHT22;23278;52.110;6.050;2022-11-15T12:17:10;22.80;61.60
37412;DHT22;23278;52.110;6.050;2022-11-15T12:19:38;22.70;61.20
37412;DHT22;23278;52.110;6.050;2022-11-15T12:22:16;22.80;59.10
37412;DHT22;23278;52.110;6.050;2022-11-15T12:27:43;23.00;56.70
37412;DHT22;23278;52.110;6.050;2022-11-15T12:30:16;23.30;56.10
37412;DHT22;23278;52.110;6.050;2022-11-15T12:33:00;23.60;54.00
37412;DHT22;23278;52.110;6.050;2022-11-15T12:37:56;23.00;53.40
37412;DHT22;23278;52.110;6.050;2022-11-15T12:40:33;22.50;53.70
37412;DHT22;23278;52.110;6.050;2022-11-15T12:43:03;21.90;54.30
37412;DHT22;23278;52.110;6.050;2022-11-15T12:45:37;21.30;55.20
37412;DHT22;23278;52.110;6.050;2022-11-15T12:53:40;20.80;56.70
37412;DHT22;23278;52.110;6.050;2022-11-15T13:07:03;22.10;54.30
37412;DHT22;23278;52.110;6.050;2022-11-15T13:14:58;21.50;55.40
37412;DHT22;23278;52.110;6.050;2022-11-15T13:17:29;21.40;56.00
37412;DHT22;23278;52.110;6.050;2022-11-15T13:22:42;20.70;56.70
37412;DHT22;23278;52.110;6.050;2022-11-15T13:25:32;20.50;57.40
37412;DHT22;23278;52.110;6.050;2022-11-15T13:28:27;20.30;57.10
37412;DHT22;23278;52.110;6.050;2022-11-15T13:33:44;20.00;57.80
37412;DHT22;23278;52.110;6.050;2022-11-15T13:36:19;20.10;57.80
37412;DHT22;23278;52.110;6.050;2022-11-15T13:38:55;20.20;58.10
37412;DHT22;23278;52.110;6.050;2022-11-15T13:41:24;20.30;57.70
37412;DHT22;23278;52.110;6.050;2022-11-15T13:43:51;20.20;57.70
37412;DHT22;23278;52.110;6.050;2022-11-15T13:46:29;20.10;57.90
37412;DHT22;23278;52.110;6.050;2022-11-15T13:49:04;20.10;58.50
37412;DHT22;23278;52.110;6.050;2022-11-15T13:56:46;20.20;58.70
37412;DHT22;23278;52.110;6.050;2022-11-15T13:59:28;20.20;58.60
37412;DHT22;23278;52.110;6.050;2022-11-15T14:01:56;20.00;58.60
37412;DHT22;23278;52.110;6.050;2022-11-15T14:04:25;19.80;58.80
37412;DHT22;23278;52.110;6.050;2022-11-15T14:06:55;19.40;59.10
37412;DHT22;23278;52.110;6.050;2022-11-15T14:09:40;19.20;59.90
37412;DHT22;23278;52.110;6.050;2022-11-15T14:12:26;18.90;60.50
37412;DHT22;23278;52.110;6.050;2022-11-15T14:14:53;18.60;61.10
37412;DHT22;23278;52.110;6.050;2022-11-15T14:17:35;18.30;61.80
37412;DHT22;23278;52.110;6.050;2022-11-15T14:20:02;18.00;62.50
37412;DHT22;23278;52.110;6.050;2022-11-15T14:22:29;17.90;63.20
37412;DHT22;23278;52.110;6.050;2022-11-15T14:25:17;17.60;63.70
37412;DHT22;23278;52.110;6.050;2022-11-15T14:28:37;17.30;64.60
37412;DHT22;23278;52.110;6.050;2022-11-15T14:30:58;17.00;65.30
37412;DHT22;23278;52.110;6.050;2022-11-15T14:33:32;16.80;65.90
37412;DHT22;23278;52.110;6.050;2022-11-15T14:38:38;16.30;66.90
37412;DHT22;23278;52.110;6.050;2022-11-15T14:41:04;16.20;67.40
37412;DHT22;23278;52.110;6.050;2022-11-15T14:43:31;16.00;68.10
37412;DHT22;23278;52.110;6.050;2022-11-15T14:45:57;15.70;68.50
37412;DHT22;23278;52.110;6.050;2022-11-15T14:48:23;15.60;68.80
37412;DHT22;23278;52.110;6.050;2022-11-15T14:50:49;15.50;69.30
37412;DHT22;23278;52.110;6.050;2022-11-15T14:53:16;15.40;69.50
37412;DHT22;23278;52.110;6.050;2022-11-15T14:55:43;15.20;69.90
37412;DHT22;23278;52.110;6.050;2022-11-15T14:58:09;15.10;70.30
37412;DHT22;23278;52.110;6.050;2022-11-15T15:00:37;15.10;70.40
37412;DHT22;23278;52.110;6.050;2022-11-15T15:03:04;15.00;70.70
37412;DHT22;23278;52.110;6.050;2022-11-15T15:07:58;15.00;70.80
37412;DHT22;23278;52.110;6.050;2022-11-15T15:10:24;15.00;71.00
37412;DHT22;23278;52.110;6.050;2022-11-15T15:12:51;14.90;71.30
37412;DHT22;23278;52.110;6.050;2022-11-15T15:15:22;14.90;71.70
37412;DHT22;23278;52.110;6.050;2022-11-15T15:17:49;14.80;72.20
37412;DHT22;23278;52.110;6.050;2022-11-15T15:20:15;14.70;72.40
37412;DHT22;23278;52.110;6.050;2022-11-15T15:22:41;14.70;72.40
37412;DHT22;23278;52.110;6.050;2022-11-15T15:27:45;14.60;72.80
37412;DHT22;23278;52.110;6.050;2022-11-15T15:30:11;14.60;73.50
37412;DHT22;23278;52.110;6.050;2022-11-15T15:32:37;14.50;73.30
37412;DHT22;23278;52.110;6.050;2022-11-15T15:35:03;14.50;73.60
37412;DHT22;23278;52.110;6.050;2022-11-15T15:37:29;14.40;73.90
37412;DHT22;23278;52.110;6.050;2022-11-15T15:39:58;14.30;74.00
37412;DHT22;23278;52.110;6.050;2022-11-15T15:42:24;14.30;74.20
37412;DHT22;23278;52.110;6.050;2022-11-15T15:44:51;14.20;74.10
37412;DHT22;23278;52.110;6.050;2022-11-15T15:47:19;14.30;74.30
37412;DHT22;23278;52.110;6.050;2022-11-15T15:49:46;14.20;74.30
37412;DHT22;23278;52.110;6.050;2022-11-15T15:52:13;14.20;74.60
37412;DHT22;23278;52.110;6.050;2022-11-15T15:54:39;14.20;74.70
37412;DHT22;23278;52.110;6.050;2022-11-15T15:57:06;14.20;74.90
37412;DHT22;23278;52.110;6.050;2022-11-15T15:59:32;14.10;75.10
37412;DHT22;23278;52.110;6.050;2022-11-15T16:01:58;14.10;75.80
37412;DHT22;23278;52.110;6.050;2022-11-15T16:04:24;14.00;75.60
37412;DHT22;23278;52.110;6.050;2022-11-15T16:06:50;14.00;75.80
37412;DHT22;23278;52.110;6.050;2022-11-15T16:09:19;13.90;75.80
37412;DHT22;23278;52.110;6.050;2022-11-15T16:12:08;13.90;76.00
37412;DHT22;23278;52.110;6.050;2022-11-15T16:14:34;13.90;76.20
37412;DHT22;23278;52.110;6.050;2022-11-15T16:16:59;13.90;76.40
37412;DHT22;23278;52.110;6.050;2022-11-15T16:19:25;13.80;76.50
37412;DHT22;23278;52.110;6.050;2022-11-15T16:21:51;13.80;76.80
37412;DHT22;23278;52.110;6.050;2022-11-15T16:24:20;13.70;77.30
37412;DHT22;23278;52.110;6.050;2022-11-15T16:26:47;13.70;77.50
37412;DHT22;23278;52.110;6.050;2022-11-15T16:29:14;13.70;77.70
37412;DHT22;23278;52.110;6.050;2022-11-15T16:31:40;13.70;77.80
37412;DHT22;23278;52.110;6.050;2022-11-15T16:34:06;13.70;78.00
37412;DHT22;23278;52.110;6.050;2022-11-15T16:36:35;13.60;78.10
37412;DHT22;23278;52.110;6.050;2022-11-15T16:39:02;13.60;78.30
37412;DHT22;23278;52.110;6.050;2022-11-15T16:41:31;13.60;78.30
37412;DHT22;23278;52.110;6.050;2022-11-15T16:43:57;13.50;78.50
37412;DHT22;23278;52.110;6.050;2022-11-15T16:46:26;13.50;78.60
37412;DHT22;23278;52.110;6.050;2022-11-15T16:48:53;13.50;78.90
37412;DHT22;23278;52.110;6.050;2022-11-15T16:51:19;13.60;79.20
37412;DHT22;23278;52.110;6.050;2022-11-15T16:53:45;13.50;79.40
37412;DHT22;23278;52.110;6.050;2022-11-15T16:56:28;13.50;79.60
37412;DHT22;23278;52.110;6.050;2022-11-15T16:58:56;13.50;79.60
37412;DHT22;23278;52.110;6.050;2022-11-15T17:03:50;13.50;80.00
37412;DHT22;23278;52.110;6.050;2022-11-15T17:06:17;13.50;80.10
37412;DHT22;23278;52.110;6.050;2022-11-15T17:08:44;13.50;80.40
37412;DHT22;23278;52.110;6.050;2022-11-15T17:11:14;13.50;80.70
37412;DHT22;23278;52.110;6.050;2022-11-15T17:13:40;13.50;81.00
37412;DHT22;23278;52.110;6.050;2022-11-15T17:16:08;13.50;81.20
37412;DHT22;23278;52.110;6.050;2022-11-15T17:18:35;13.50;81.50
37412;DHT22;23278;52.110;6.050;2022-11-15T17:21:11;13.50;81.70
37412;DHT22;23278;52.110;6.050;2022-11-15T17:23:37;13.50;82.00
37412;DHT22;23278;52.110;6.050;2022-11-15T17:26:05;13.50;82.30
37412;DHT22;23278;52.110;6.050;2022-11-15T17:28:32;13.50;82.40
37412;DHT22;23278;52.110;6.050;2022-11-15T17:30:58;13.50;82.60
37412;DHT22;23278;52.110;6.050;2022-11-15T17:33:24;13.50;82.70
37412;DHT22;23278;52.110;6.050;2022-11-15T17:35:58;13.60;82.90
37412;DHT22;23278;52.110;6.050;2022-11-15T17:38:25;13.60;83.10
37412;DHT22;23278;52.110;6.050;2022-11-15T17:41:05;13.60;83.30
37412;DHT22;23278;52.110;6.050;2022-11-15T17:43:32;13.60;83.50
37412;DHT22;23278;52.110;6.050;2022-11-15T17:45:59;13.60;84.10
37412;DHT22;23278;52.110;6.050;2022-11-15T17:48:29;13.60;84.40
37412;DHT22;23278;52.110;6.050;2022-11-15T17:51:06;13.60;84.60
37412;DHT22;23278;52.110;6.050;2022-11-15T17:53:37;13.60;85.00
37412;DHT22;23278;52.110;6.050;2022-11-15T17:56:08;13.60;85.30
37412;DHT22;23278;52.110;6.050;2022-11-15T17:58:34;13.70;85.80
37412;DHT22;23278;52.110;6.050;2022-11-15T18:01:17;13.60;86.00
37412;DHT22;23278;52.110;6.050;2022-11-15T18:03:43;13.70;86.40
37412;DHT22;23278;52.110;6.050;2022-11-15T18:06:10;13.70;86.70
37412;DHT22;23278;52.110;6.050;2022-11-15T18:08:38;13.70;87.10
37412;DHT22;23278;52.110;6.050;2022-11-15T18:13:36;13.70;87.60
37412;DHT22;23278;52.110;6.050;2022-11-15T18:16:08;13.70;87.90
37412;DHT22;23278;52.110;6.050;2022-11-15T18:18:34;13.70;88.40
37412;DHT22;23278;52.110;6.050;2022-11-15T18:21:06;13.70;88.80
37412;DHT22;23278;52.110;6.050;2022-11-15T18:23:33;13.70;89.30
37412;DHT22;23278;52.110;6.050;2022-11-15T18:26:03;13.70;89.80
37412;DHT22;23278;52.110;6.050;2022-11-15T18:28:41;13.70;90.30
37412;DHT22;23278;52.110;6.050;2022-11-15T18:31:25;13.70;90.60
37412;DHT22;23278;52.110;6.050;2022-11-15T18:33:52;13.60;90.80
37412;DHT22;23278;52.110;6.050;2022-11-15T18:36:21;13.70;91.10
37412;DHT22;23278;52.110;6.050;2022-11-15T18:38:47;13.60;91.40
37412;DHT22;23278;52.110;6.050;2022-11-15T18:41:16;13.60;91.70
37412;DHT22;23278;52.110;6.050;2022-11-15T18:43:49;13.60;91.90
37412;DHT22;23278;52.110;6.050;2022-11-15T18:46:18;13.60;92.30
37412;DHT22;23278;52.110;6.050;2022-11-15T18:48:45;13.50;92.70
37412;DHT22;23278;52.110;6.050;2022-11-15T18:51:13;13.40;93.30
37412;DHT22;23278;52.110;6.050;2022-11-15T18:53:40;13.40;93.50
37412;DHT22;23278;52.110;6.050;2022-11-15T18:56:17;13.40;93.80
37412;DHT22;23278;52.110;6.050;2022-11-15T18:58:46;13.40;94.10
37412;DHT22;23278;52.110;6.050;2022-11-15T19:01:13;13.30;94.70
37412;DHT22;23278;52.110;6.050;2022-11-15T19:03:42;13.30;95.20
37412;DHT22;23278;52.110;6.050;2022-11-15T19:06:14;13.30;95.40
37412;DHT22;23278;52.110;6.050;2022-11-15T19:08:41;13.30;95.70